RYR84JW LIRN-LZIB
Flight info
| Callsign | RYR84JW |
|---|---|
| Flight time | 1h 30m |
| Altitude | 36000 |
| Route | BEDPI DCT MOLUX DCT XOLTA/N0433F370 DCT KOPRY DCT JOZEP/N0432F380 DCT PUCOG DCT BODZA DCT XOMBA |
| Aircraft | B738/M-SDE2E3FGHIRWXY/LB1 |
Departure
| Time | 2026-05-04 13:55 |
|---|---|
| Airport | Naples International Airport (LIRN) |
Arrival
| Time | 2026-05-04 15:25 |
|---|---|
| Airport | M. R. Štefánik Airport (LZIB) |
| Time | Latitude | Longitude | Altitude | Speed | Heading |
|---|---|---|---|---|---|
| 2026-05-04 13:21 | 40.87775 | 14.28010 | 297 ft | 0 kts | 142° |
| 2026-05-04 13:44 | 40.87775 | 14.28009 | 296 ft | 0 kts | 142° |
| 2026-05-04 13:44 | 40.87788 | 14.27996 | 296 ft | 2 kts | 141° |
| 2026-05-04 13:44 | 40.87796 | 14.27988 | 296 ft | 2 kts | 142° |
| 2026-05-04 13:45 | 40.87812 | 14.27972 | 295 ft | 2 kts | 141° |
| 2026-05-04 13:45 | 40.87820 | 14.27963 | 295 ft | 2 kts | 142° |
| 2026-05-04 13:45 | 40.87832 | 14.27951 | 295 ft | 2 kts | 134° |
| 2026-05-04 13:45 | 40.87844 | 14.27931 | 294 ft | 2 kts | 124° |
| 2026-05-04 13:46 | 40.87852 | 14.27914 | 294 ft | 2 kts | 116° |
| 2026-05-04 13:46 | 40.87857 | 14.27899 | 294 ft | 1 kts | 109° |
| 2026-05-04 13:46 | 40.87861 | 14.27889 | 294 ft | 1 kts | 126° |
| 2026-05-04 13:46 | 40.87862 | 14.27887 | 294 ft | 0 kts | 128° |
| 2026-05-04 13:49 | 40.87860 | 14.27891 | 294 ft | 2 kts | 126° |
| 2026-05-04 13:49 | 40.87885 | 14.28000 | 293 ft | 15 kts | 49° |
| 2026-05-04 13:49 | 40.87959 | 14.28125 | 290 ft | 16 kts | 66° |
| 2026-05-04 13:49 | 40.87952 | 14.28266 | 291 ft | 14 kts | 99° |
| 2026-05-04 13:50 | 40.87940 | 14.28384 | 294 ft | 11 kts | 96° |
| 2026-05-04 13:50 | 40.87952 | 14.28471 | 294 ft | 9 kts | 44° |
| 2026-05-04 13:50 | 40.88005 | 14.28539 | 291 ft | 13 kts | 49° |
| 2026-05-04 13:50 | 40.88080 | 14.28669 | 286 ft | 20 kts | 52° |
| 2026-05-04 13:51 | 40.88139 | 14.28771 | 281 ft | 21 kts | 53° |
| 2026-05-04 13:51 | 40.88273 | 14.29005 | 271 ft | 25 kts | 54° |
| 2026-05-04 13:51 | 40.88348 | 14.29133 | 264 ft | 28 kts | 50° |
| 2026-05-04 13:51 | 40.88512 | 14.29414 | 257 ft | 29 kts | 53° |
| 2026-05-04 13:52 | 40.88758 | 14.29842 | 247 ft | 29 kts | 52° |
| 2026-05-04 13:52 | 40.88841 | 14.29988 | 242 ft | 31 kts | 52° |
| 2026-05-04 13:52 | 40.89005 | 14.30271 | 230 ft | 28 kts | 52° |
| 2026-05-04 13:53 | 40.89106 | 14.30435 | 224 ft | 12 kts | 40° |
| 2026-05-04 13:53 | 40.89181 | 14.30438 | 224 ft | 10 kts | 331° |
| 2026-05-04 13:53 | 40.89214 | 14.30376 | 225 ft | 6 kts | 261° |
| 2026-05-04 13:54 | 40.89178 | 14.30295 | 227 ft | 29 kts | 238° |
| 2026-05-04 13:54 | 40.89045 | 14.30013 | 237 ft | 78 kts | 237° |
| 2026-05-04 13:54 | 40.88061 | 14.27899 | 534 ft | 168 kts | 236° |
| 2026-05-04 13:55 | 40.87062 | 14.26346 | 1517 ft | 172 kts | 211° |
| 2026-05-04 13:55 | 40.84634 | 14.26136 | 2729 ft | 186 kts | 171° |
| 2026-05-04 13:55 | 40.83291 | 14.26407 | 3119 ft | 206 kts | 172° |
| 2026-05-04 13:56 | 40.82315 | 14.26586 | 3447 ft | 218 kts | 173° |
| 2026-05-04 13:56 | 40.80249 | 14.26957 | 4342 ft | 230 kts | 173° |
| 2026-05-04 13:56 | 40.77127 | 14.27521 | 6102 ft | 229 kts | 173° |
| 2026-05-04 13:57 | 40.75565 | 14.27807 | 6901 ft | 231 kts | 171° |
| 2026-05-04 13:57 | 40.74033 | 14.28462 | 7651 ft | 236 kts | 149° |
| 2026-05-04 13:58 | 40.71875 | 14.34076 | 9855 ft | 250 kts | 81° |
| 2026-05-04 13:58 | 40.72565 | 14.38627 | 11251 ft | 258 kts | 79° |
| 2026-05-04 13:58 | 40.72935 | 14.40914 | 12000 ft | 260 kts | 73° |
| 2026-05-04 13:59 | 40.73388 | 14.42386 | 12435 ft | 263 kts | 58° |
| 2026-05-04 13:59 | 40.75172 | 14.44561 | 13171 ft | 274 kts | 27° |
| 2026-05-04 13:59 | 40.78725 | 14.47009 | 14096 ft | 303 kts | 27° |
| 2026-05-04 14:00 | 40.80623 | 14.48349 | 14562 ft | 318 kts | 26° |
| 2026-05-04 14:00 | 40.84009 | 14.50735 | 15349 ft | 342 kts | 26° |
| 2026-05-04 14:00 | 40.86869 | 14.52751 | 15950 ft | 361 kts | 26° |
| 2026-05-04 14:01 | 40.89113 | 14.54336 | 16584 ft | 369 kts | 26° |
| 2026-05-04 14:01 | 40.91370 | 14.55934 | 17315 ft | 374 kts | 25° |
| 2026-05-04 14:01 | 40.95998 | 14.59208 | 18837 ft | 380 kts | 25° |
| 2026-05-04 14:02 | 40.98314 | 14.60844 | 19532 ft | 384 kts | 25° |
| 2026-05-04 14:02 | 40.99907 | 14.61970 | 20038 ft | 386 kts | 25° |
| 2026-05-04 14:02 | 41.03070 | 14.64208 | 20932 ft | 390 kts | 24° |
| 2026-05-04 14:02 | 41.05459 | 14.65898 | 21577 ft | 394 kts | 24° |
| 2026-05-04 14:03 | 41.07955 | 14.67484 | 22202 ft | 396 kts | 20° |
| 2026-05-04 14:03 | 41.10473 | 14.68904 | 22835 ft | 398 kts | 19° |
| 2026-05-04 14:03 | 41.13063 | 14.70320 | 23491 ft | 401 kts | 19° |
| 2026-05-04 14:03 | 41.15596 | 14.71707 | 24076 ft | 404 kts | 19° |
| 2026-05-04 14:04 | 41.20744 | 14.74560 | 25288 ft | 409 kts | 19° |
| 2026-05-04 14:04 | 41.23384 | 14.76033 | 25853 ft | 412 kts | 19° |
| 2026-05-04 14:04 | 41.25119 | 14.77007 | 26241 ft | 414 kts | 20° |
| 2026-05-04 14:05 | 41.31129 | 14.80867 | 27328 ft | 425 kts | 23° |
| 2026-05-04 14:05 | 41.33762 | 14.82634 | 27866 ft | 427 kts | 23° |
| 2026-05-04 14:05 | 41.36409 | 14.84398 | 28317 ft | 428 kts | 23° |
| 2026-05-04 14:06 | 41.38983 | 14.86108 | 28752 ft | 430 kts | 23° |
| 2026-05-04 14:06 | 41.41678 | 14.87896 | 29199 ft | 432 kts | 22° |
| 2026-05-04 14:06 | 41.43462 | 14.89078 | 29471 ft | 434 kts | 22° |
| 2026-05-04 14:06 | 41.47105 | 14.91479 | 29952 ft | 438 kts | 23° |
| 2026-05-04 14:07 | 41.49821 | 14.93275 | 30285 ft | 442 kts | 23° |
| 2026-05-04 14:07 | 41.52556 | 14.95089 | 30660 ft | 445 kts | 23° |
| 2026-05-04 14:07 | 41.54412 | 14.96322 | 31007 ft | 444 kts | 23° |
| 2026-05-04 14:07 | 41.57172 | 14.98156 | 31524 ft | 442 kts | 22° |
| 2026-05-04 14:08 | 41.59902 | 14.99975 | 32004 ft | 441 kts | 22° |
| 2026-05-04 14:08 | 41.63576 | 15.02422 | 32574 ft | 441 kts | 22° |
| 2026-05-04 14:08 | 41.66280 | 15.04223 | 33041 ft | 441 kts | 22° |
| 2026-05-04 14:08 | 41.69049 | 15.06088 | 33530 ft | 440 kts | 22° |
| 2026-05-04 14:09 | 41.74440 | 15.09708 | 34768 ft | 430 kts | 21° |
| 2026-05-04 14:09 | 41.76206 | 15.10886 | 35244 ft | 424 kts | 21° |
| 2026-05-04 14:10 | 41.82234 | 15.14900 | 36416 ft | 414 kts | 21° |
| 2026-05-04 14:10 | 41.84810 | 15.16618 | 36845 ft | 412 kts | 21° |
| 2026-05-04 14:10 | 41.87358 | 15.18319 | 37080 ft | 415 kts | 21° |
| 2026-05-04 14:11 | 41.92501 | 15.21761 | 37071 ft | 424 kts | 21° |
| 2026-05-04 14:11 | 42.00373 | 15.27060 | 37056 ft | 420 kts | 21° |
| 2026-05-04 14:12 | 42.04702 | 15.29981 | 37061 ft | 421 kts | 21° |
| 2026-05-04 14:13 | 42.13454 | 15.35892 | 37069 ft | 422 kts | 21° |
| 2026-05-04 14:13 | 42.18675 | 15.39435 | 37065 ft | 423 kts | 21° |
| 2026-05-04 14:14 | 42.23910 | 15.42983 | 37075 ft | 422 kts | 21° |
| 2026-05-04 14:14 | 42.30890 | 15.47729 | 37075 ft | 422 kts | 21° |
| 2026-05-04 14:15 | 42.42215 | 15.55452 | 37082 ft | 422 kts | 21° |
| 2026-05-04 14:16 | 42.50064 | 15.60825 | 37076 ft | 422 kts | 22° |
| 2026-05-04 14:17 | 42.57868 | 15.66183 | 37088 ft | 422 kts | 22° |
| 2026-05-04 14:18 | 42.65699 | 15.71574 | 37088 ft | 422 kts | 23° |
| 2026-05-04 14:19 | 42.76584 | 15.76844 | 37077 ft | 416 kts | 9° |
| 2026-05-04 14:19 | 42.82219 | 15.78669 | 37087 ft | 416 kts | 9° |
| 2026-05-04 14:20 | 42.87863 | 15.80491 | 37087 ft | 416 kts | 10° |
| 2026-05-04 14:20 | 42.93444 | 15.82310 | 37086 ft | 415 kts | 10° |
| 2026-05-04 14:21 | 43.01888 | 15.85065 | 37089 ft | 417 kts | 10° |
| 2026-05-04 14:21 | 43.07497 | 15.86898 | 37089 ft | 418 kts | 10° |
| 2026-05-04 14:22 | 43.12131 | 15.88413 | 37086 ft | 417 kts | 10° |
| 2026-05-04 14:22 | 43.18681 | 15.90560 | 37084 ft | 417 kts | 10° |
| 2026-05-04 14:23 | 43.27110 | 15.93331 | 37087 ft | 415 kts | 10° |
| 2026-05-04 14:24 | 43.31752 | 15.94857 | 37089 ft | 415 kts | 10° |
| 2026-05-04 14:24 | 43.38270 | 15.97007 | 37088 ft | 416 kts | 10° |
| 2026-05-04 14:25 | 43.43876 | 15.98863 | 37086 ft | 416 kts | 10° |
| 2026-05-04 14:25 | 43.52168 | 16.01611 | 37089 ft | 417 kts | 10° |
| 2026-05-04 14:26 | 43.57733 | 16.03459 | 37091 ft | 415 kts | 10° |
| 2026-05-04 14:26 | 43.62331 | 16.04988 | 37094 ft | 414 kts | 10° |
| 2026-05-04 14:27 | 43.67827 | 16.06815 | 37097 ft | 415 kts | 10° |
| 2026-05-04 14:27 | 43.74295 | 16.08968 | 37098 ft | 415 kts | 10° |
| 2026-05-04 14:28 | 43.79852 | 16.10827 | 37099 ft | 415 kts | 10° |
| 2026-05-04 14:28 | 43.85368 | 16.12685 | 37097 ft | 415 kts | 10° |
| 2026-05-04 14:29 | 43.95489 | 16.16093 | 37090 ft | 414 kts | 10° |
| 2026-05-04 14:30 | 44.01905 | 16.18259 | 37090 ft | 415 kts | 10° |
| 2026-05-04 14:31 | 44.10144 | 16.21043 | 37099 ft | 414 kts | 10° |
| 2026-05-04 14:32 | 44.21199 | 16.24791 | 37112 ft | 415 kts | 11° |
| 2026-05-04 14:32 | 44.26739 | 16.26679 | 37122 ft | 414 kts | 11° |
| 2026-05-04 14:33 | 44.31940 | 16.28452 | 37115 ft | 414 kts | 11° |
| 2026-05-04 14:33 | 44.36993 | 16.30175 | 37115 ft | 414 kts | 11° |
| 2026-05-04 14:34 | 44.42522 | 16.32065 | 37113 ft | 415 kts | 11° |
| 2026-05-04 14:34 | 44.48075 | 16.33970 | 37112 ft | 413 kts | 11° |
| 2026-05-04 14:35 | 44.53612 | 16.35869 | 37112 ft | 414 kts | 10° |
| 2026-05-04 14:35 | 44.59183 | 16.37787 | 37102 ft | 413 kts | 11° |
| 2026-05-04 14:36 | 44.64521 | 16.39631 | 37095 ft | 414 kts | 11° |
| 2026-05-04 14:36 | 44.70110 | 16.41561 | 37083 ft | 414 kts | 11° |
| 2026-05-04 14:37 | 44.75661 | 16.43481 | 37078 ft | 414 kts | 11° |
| 2026-05-04 14:37 | 44.81198 | 16.45400 | 37067 ft | 414 kts | 11° |
| 2026-05-04 14:38 | 44.86736 | 16.47326 | 37055 ft | 413 kts | 11° |
| 2026-05-04 14:38 | 44.92310 | 16.49266 | 37048 ft | 414 kts | 11° |
| 2026-05-04 14:39 | 44.97826 | 16.51189 | 37036 ft | 412 kts | 11° |
| 2026-05-04 14:39 | 45.03359 | 16.53123 | 37026 ft | 412 kts | 11° |
| 2026-05-04 14:40 | 45.11673 | 16.56035 | 37026 ft | 414 kts | 11° |
| 2026-05-04 14:40 | 45.17233 | 16.57989 | 37025 ft | 414 kts | 11° |
| 2026-05-04 14:41 | 45.22773 | 16.59938 | 37021 ft | 414 kts | 11° |
| 2026-05-04 14:42 | 45.33890 | 16.63865 | 37019 ft | 412 kts | 11° |
| 2026-05-04 14:42 | 45.39453 | 16.65830 | 37019 ft | 413 kts | 12° |
| 2026-05-04 14:43 | 45.45013 | 16.67799 | 37021 ft | 414 kts | 12° |
| 2026-05-04 14:43 | 45.50564 | 16.69772 | 37021 ft | 414 kts | 12° |
| 2026-05-04 14:44 | 45.56118 | 16.71750 | 37020 ft | 414 kts | 12° |
| 2026-05-04 14:44 | 45.61691 | 16.73739 | 37018 ft | 413 kts | 12° |
| 2026-05-04 14:45 | 45.67241 | 16.75725 | 37017 ft | 413 kts | 12° |
| 2026-05-04 14:45 | 45.72604 | 16.77647 | 37012 ft | 413 kts | 12° |
| 2026-05-04 14:46 | 45.78046 | 16.79601 | 37006 ft | 414 kts | 12° |
| 2026-05-04 14:46 | 45.83366 | 16.81515 | 37007 ft | 413 kts | 12° |
| 2026-05-04 14:47 | 45.88677 | 16.83432 | 37006 ft | 413 kts | 12° |
| 2026-05-04 14:47 | 45.94334 | 16.85477 | 37009 ft | 412 kts | 12° |
| 2026-05-04 14:48 | 45.99822 | 16.87464 | 37006 ft | 412 kts | 12° |
| 2026-05-04 14:48 | 46.05365 | 16.89474 | 37007 ft | 414 kts | 12° |
| 2026-05-04 14:49 | 46.10864 | 16.91474 | 37003 ft | 414 kts | 12° |
| 2026-05-04 14:49 | 46.16414 | 16.93496 | 36998 ft | 414 kts | 12° |
| 2026-05-04 14:50 | 46.21850 | 16.96078 | 36993 ft | 416 kts | 24° |
| 2026-05-04 14:50 | 46.24320 | 16.98244 | 36995 ft | 419 kts | 36° |
| 2026-05-04 14:50 | 46.26489 | 17.01043 | 36996 ft | 421 kts | 44° |
| 2026-05-04 14:51 | 46.30228 | 17.07434 | 36997 ft | 424 kts | 49° |
| 2026-05-04 14:51 | 46.33781 | 17.13946 | 36999 ft | 424 kts | 49° |
| 2026-05-04 14:52 | 46.37346 | 17.20494 | 36995 ft | 424 kts | 49° |
| 2026-05-04 14:52 | 46.40974 | 17.27159 | 37003 ft | 424 kts | 49° |
| 2026-05-04 14:53 | 46.44632 | 17.33888 | 37004 ft | 424 kts | 49° |
| 2026-05-04 14:53 | 46.48254 | 17.40562 | 37011 ft | 423 kts | 49° |
| 2026-05-04 14:54 | 46.51865 | 17.47229 | 37008 ft | 423 kts | 49° |
| 2026-05-04 14:54 | 46.55484 | 17.53924 | 37011 ft | 423 kts | 49° |
| 2026-05-04 14:55 | 46.59096 | 17.60625 | 37013 ft | 423 kts | 49° |
| 2026-05-04 14:55 | 46.62720 | 17.67367 | 37011 ft | 422 kts | 50° |
| 2026-05-04 14:56 | 46.66258 | 17.73959 | 37015 ft | 422 kts | 50° |
| 2026-05-04 14:56 | 46.69886 | 17.80736 | 37020 ft | 423 kts | 50° |
| 2026-05-04 14:57 | 46.73461 | 17.87433 | 37026 ft | 423 kts | 50° |
| 2026-05-04 14:57 | 46.77069 | 17.94205 | 37030 ft | 424 kts | 50° |
| 2026-05-04 14:58 | 46.80645 | 18.00934 | 37029 ft | 423 kts | 50° |
| 2026-05-04 14:58 | 46.84243 | 18.07722 | 37022 ft | 423 kts | 50° |
| 2026-05-04 14:59 | 46.87830 | 18.14508 | 37024 ft | 422 kts | 50° |
| 2026-05-04 15:00 | 46.93162 | 18.24622 | 37023 ft | 421 kts | 50° |
| 2026-05-04 15:00 | 46.96712 | 18.31376 | 37020 ft | 422 kts | 50° |
| 2026-05-04 15:01 | 47.02043 | 18.41550 | 37020 ft | 423 kts | 50° |
| 2026-05-04 15:01 | 47.05524 | 18.48214 | 37012 ft | 422 kts | 50° |
| 2026-05-04 15:02 | 47.09054 | 18.54985 | 37023 ft | 422 kts | 50° |
| 2026-05-04 15:02 | 47.12835 | 18.61384 | 37024 ft | 420 kts | 39° |
| 2026-05-04 15:03 | 47.15122 | 18.63857 | 37036 ft | 417 kts | 27° |
| 2026-05-04 15:03 | 47.17612 | 18.65651 | 37041 ft | 415 kts | 21° |
| 2026-05-04 15:03 | 47.20331 | 18.67059 | 37398 ft | 408 kts | 13° |
| 2026-05-04 15:03 | 47.23080 | 18.67783 | 37465 ft | 402 kts | 2° |
| 2026-05-04 15:04 | 47.25870 | 18.67729 | 36671 ft | 404 kts | 354° |
| 2026-05-04 15:04 | 47.28637 | 18.67162 | 35709 ft | 409 kts | 347° |
| 2026-05-04 15:04 | 47.31334 | 18.66001 | 35169 ft | 401 kts | 339° |
| 2026-05-04 15:04 | 47.33822 | 18.64491 | 34518 ft | 396 kts | 336° |
| 2026-05-04 15:05 | 47.36320 | 18.62825 | 33791 ft | 391 kts | 335° |
| 2026-05-04 15:05 | 47.38718 | 18.61200 | 33048 ft | 387 kts | 334° |
| 2026-05-04 15:05 | 47.40892 | 18.59472 | 32352 ft | 383 kts | 328° |
| 2026-05-04 15:05 | 47.43081 | 18.57303 | 31615 ft | 379 kts | 324° |
| 2026-05-04 15:06 | 47.45181 | 18.55044 | 30854 ft | 375 kts | 323° |
| 2026-05-04 15:06 | 47.47224 | 18.52788 | 30165 ft | 370 kts | 323° |
| 2026-05-04 15:06 | 47.49269 | 18.50511 | 29406 ft | 368 kts | 323° |
| 2026-05-04 15:07 | 47.53263 | 18.46022 | 27962 ft | 361 kts | 322° |
| 2026-05-04 15:07 | 47.55175 | 18.43640 | 27239 ft | 358 kts | 317° |
| 2026-05-04 15:07 | 47.56883 | 18.41026 | 26535 ft | 355 kts | 311° |
| 2026-05-04 15:07 | 47.58449 | 18.38276 | 25816 ft | 352 kts | 309° |
| 2026-05-04 15:08 | 47.59972 | 18.35491 | 25144 ft | 349 kts | 309° |
| 2026-05-04 15:08 | 47.61467 | 18.32730 | 24438 ft | 345 kts | 308° |
| 2026-05-04 15:08 | 47.62962 | 18.29957 | 23717 ft | 343 kts | 308° |
| 2026-05-04 15:08 | 47.64437 | 18.27216 | 23007 ft | 341 kts | 308° |
| 2026-05-04 15:09 | 47.65899 | 18.24494 | 22329 ft | 338 kts | 308° |
| 2026-05-04 15:09 | 47.67332 | 18.21822 | 21689 ft | 334 kts | 308° |
| 2026-05-04 15:09 | 47.68771 | 18.19135 | 21026 ft | 331 kts | 308° |
| 2026-05-04 15:10 | 47.71607 | 18.13831 | 19731 ft | 326 kts | 307° |
| 2026-05-04 15:10 | 47.73000 | 18.11222 | 19086 ft | 323 kts | 307° |
| 2026-05-04 15:10 | 47.75987 | 18.06340 | 17835 ft | 319 kts | 319° |
| 2026-05-04 15:11 | 47.77808 | 18.04480 | 17170 ft | 318 kts | 328° |
| 2026-05-04 15:11 | 47.79738 | 18.02900 | 16502 ft | 318 kts | 330° |
| 2026-05-04 15:11 | 47.81678 | 18.01379 | 15855 ft | 316 kts | 330° |
| 2026-05-04 15:11 | 47.83608 | 17.99863 | 15231 ft | 314 kts | 330° |
| 2026-05-04 15:12 | 47.85535 | 17.98336 | 14600 ft | 313 kts | 330° |
| 2026-05-04 15:12 | 47.87426 | 17.96831 | 13982 ft | 312 kts | 330° |
| 2026-05-04 15:12 | 47.89349 | 17.95295 | 13386 ft | 309 kts | 330° |
| 2026-05-04 15:12 | 47.91212 | 17.93806 | 12833 ft | 306 kts | 330° |
| 2026-05-04 15:13 | 47.93062 | 17.92325 | 12274 ft | 304 kts | 330° |
| 2026-05-04 15:13 | 47.94905 | 17.90848 | 12018 ft | 295 kts | 330° |
| 2026-05-04 15:13 | 47.96720 | 17.89391 | 12000 ft | 301 kts | 330° |
| 2026-05-04 15:13 | 47.98576 | 17.87899 | 11765 ft | 301 kts | 330° |
| 2026-05-04 15:14 | 48.00402 | 17.86434 | 11413 ft | 299 kts | 330° |
| 2026-05-04 15:14 | 48.02240 | 17.84956 | 11025 ft | 298 kts | 329° |
| 2026-05-04 15:14 | 48.04052 | 17.83497 | 10638 ft | 297 kts | 329° |
| 2026-05-04 15:14 | 48.05777 | 17.81889 | 10251 ft | 294 kts | 318° |
| 2026-05-04 15:15 | 48.07253 | 17.79779 | 9907 ft | 290 kts | 311° |
| 2026-05-04 15:15 | 48.08612 | 17.77643 | 9643 ft | 285 kts | 311° |
| 2026-05-04 15:15 | 48.09979 | 17.75512 | 9270 ft | 284 kts | 311° |
| 2026-05-04 15:16 | 48.12732 | 17.71275 | 8534 ft | 282 kts | 312° |
| 2026-05-04 15:16 | 48.14093 | 17.69189 | 8171 ft | 282 kts | 312° |
| 2026-05-04 15:16 | 48.16844 | 17.65035 | 7413 ft | 281 kts | 317° |
| 2026-05-04 15:17 | 48.18506 | 17.63493 | 7035 ft | 283 kts | 334° |
| 2026-05-04 15:17 | 48.22115 | 17.61194 | 6277 ft | 282 kts | 335° |
| 2026-05-04 15:17 | 48.23920 | 17.60022 | 5920 ft | 281 kts | 335° |
| 2026-05-04 15:18 | 48.25705 | 17.58850 | 5562 ft | 280 kts | 335° |
| 2026-05-04 15:18 | 48.27483 | 17.57676 | 5211 ft | 279 kts | 334° |
| 2026-05-04 15:18 | 48.29253 | 17.56502 | 4856 ft | 278 kts | 335° |
| 2026-05-04 15:19 | 48.32724 | 17.53981 | 4103 ft | 275 kts | 320° |
| 2026-05-04 15:19 | 48.33876 | 17.51851 | 4006 ft | 256 kts | 289° |
| 2026-05-04 15:19 | 48.34067 | 17.46909 | 3985 ft | 228 kts | 243° |
| 2026-05-04 15:20 | 48.33206 | 17.45038 | 4006 ft | 215 kts | 224° |
| 2026-05-04 15:20 | 48.32204 | 17.43386 | 3987 ft | 208 kts | 226° |
| 2026-05-04 15:20 | 48.31270 | 17.41866 | 3967 ft | 193 kts | 222° |
| 2026-05-04 15:20 | 48.30315 | 17.40470 | 3737 ft | 191 kts | 221° |
| 2026-05-04 15:21 | 48.29371 | 17.39097 | 3498 ft | 186 kts | 220° |
| 2026-05-04 15:21 | 48.28448 | 17.37757 | 3218 ft | 184 kts | 220° |
| 2026-05-04 15:21 | 48.26670 | 17.35185 | 2755 ft | 164 kts | 219° |
| 2026-05-04 15:22 | 48.25877 | 17.34030 | 2489 ft | 154 kts | 219° |
| 2026-05-04 15:22 | 48.25160 | 17.32991 | 2356 ft | 142 kts | 217° |
| 2026-05-04 15:22 | 48.23726 | 17.30930 | 1939 ft | 141 kts | 217° |
| 2026-05-04 15:23 | 48.23017 | 17.29919 | 1764 ft | 140 kts | 219° |
| 2026-05-04 15:23 | 48.22309 | 17.28883 | 1543 ft | 145 kts | 217° |
| 2026-05-04 15:23 | 48.21589 | 17.27850 | 1439 ft | 146 kts | 218° |
| 2026-05-04 15:23 | 48.20844 | 17.26809 | 1273 ft | 143 kts | 218° |
| 2026-05-04 15:24 | 48.19430 | 17.24766 | 829 ft | 148 kts | 222° |
| 2026-05-04 15:24 | 48.17997 | 17.22708 | 483 ft | 142 kts | 218° |
| 2026-05-04 15:25 | 48.17330 | 17.21744 | 429 ft | 110 kts | 223° |
| 2026-05-04 15:25 | 48.16893 | 17.21115 | 429 ft | 67 kts | 223° |
| 2026-05-04 15:25 | 48.16623 | 17.20725 | 431 ft | 39 kts | 223° |
| 2026-05-04 15:26 | 48.16595 | 17.20546 | 432 ft | 10 kts | 315° |
| 2026-05-04 15:26 | 48.16662 | 17.20442 | 432 ft | 14 kts | 314° |
| 2026-05-04 15:26 | 48.16790 | 17.20249 | 433 ft | 11 kts | 313° |
| 2026-05-04 15:27 | 48.16837 | 17.20176 | 435 ft | 8 kts | 324° |
| 2026-05-04 15:27 | 48.16829 | 17.20088 | 435 ft | 3 kts | 223° |
| 2026-05-04 15:28 | 48.16857 | 17.20023 | 435 ft | 4 kts | 314° |
| 2026-05-04 15:28 | 48.16861 | 17.20018 | 436 ft | 0 kts | 314° |